Sage, Arkansas
Current Conditions -  °F | °C
As of 3:15 PM on Thursday 20 Nov 2014 (Local Time) from KBVX Reporting Station
Overcast Overcast  
Wind Chill: 50°   Ceiling: 4400
Heat Index: 50°   Visibility: 10mi
Dew Point: 25°   Wind: 9mph
Humidity: 37%   Direction: 70°ENE
Pressure: 30.18"   Gusts: NA
Location:  36.05°N, 91.82°W
Report Text: KBVX 202115Z AUTO 07008KT 10SM BKN044 OVC050 10/M04 A3018 RMK AO1
Loading
Personal Weather Stations






























Interactive Weather Map New forecast layout! Learn more

10-Day Weather Forecast

Advertisements
Track Severe Weather on mobile